createdAt,value
2017-01-23T00:00:30.291Z,1020.46
2017-01-23T00:01:30.228Z,1020.51
2017-01-23T00:02:30.168Z,1020.49
2017-01-23T00:03:30.106Z,1020.48
2017-01-23T00:04:30.043Z,1020.52
2017-01-23T00:05:29.988Z,1020.48
2017-01-23T00:06:29.920Z,1020.49
2017-01-23T00:07:29.859Z,1020.45
2017-01-23T00:08:29.796Z,1020.5
2017-01-23T00:09:29.734Z,1020.52
2017-01-23T00:10:29.673Z,1020.47
2017-01-23T00:11:29.611Z,1020.48
2017-01-23T00:12:29.550Z,1020.44
2017-01-23T00:13:29.488Z,1020.44
2017-01-23T00:14:29.427Z,1020.39
2017-01-23T00:15:29.364Z,1020.38
2017-01-23T00:16:29.303Z,1020.37
2017-01-23T00:17:29.243Z,1020.36
2017-01-23T00:18:29.181Z,1020.36
2017-01-23T00:19:29.119Z,1020.38
2017-01-23T00:20:29.059Z,1020.35
2017-01-23T00:21:28.998Z,1020.35
2017-01-23T00:22:28.933Z,1020.39
2017-01-23T00:23:28.873Z,1020.32
2017-01-23T00:24:28.811Z,1020.31
2017-01-23T00:25:28.749Z,1020.31
2017-01-23T00:26:28.687Z,1020.29
2017-01-23T00:27:28.626Z,1020.26
2017-01-23T00:28:28.564Z,1020.28
2017-01-23T00:29:28.507Z,1020.3
2017-01-23T00:30:28.441Z,1020.3
2017-01-23T00:31:28.380Z,1020.29
2017-01-23T00:32:28.318Z,1020.28
2017-01-23T00:33:28.256Z,1020.27
2017-01-23T00:34:28.197Z,1020.24
2017-01-23T00:35:28.132Z,1020.19
2017-01-23T00:36:28.072Z,1020.19
2017-01-23T00:37:28.012Z,1020.19
2017-01-23T00:38:27.947Z,1020.19
2017-01-23T00:39:27.887Z,1020.16
2017-01-23T00:40:27.823Z,1020.16
2017-01-23T00:41:27.761Z,1020.14
2017-01-23T00:42:27.701Z,1020.12
2017-01-23T00:43:27.639Z,1020.17
2017-01-23T00:44:27.578Z,1020.14
2017-01-23T00:45:27.515Z,1020.12
2017-01-23T00:46:27.455Z,1020.12
2017-01-23T00:47:27.392Z,1020.08
2017-01-23T00:48:27.334Z,1020.05
2017-01-23T00:49:27.268Z,1020.05
2017-01-23T00:50:27.207Z,1020.05
2017-01-23T00:51:27.143Z,1020.01
2017-01-23T00:52:27.082Z,1019.97
2017-01-23T00:53:27.021Z,1019.97
2017-01-23T00:54:26.958Z,1019.96
2017-01-23T00:55:26.897Z,1019.95
2017-01-23T00:56:26.834Z,1019.9
2017-01-23T00:57:26.773Z,1019.93
2017-01-23T00:58:26.711Z,1019.92
2017-01-23T00:59:26.650Z,1019.96
2017-01-23T01:01:10.588Z,1019.94
2017-01-23T01:02:10.525Z,1019.97
2017-01-23T01:03:10.463Z,1020.01
2017-01-23T01:04:10.400Z,1020.02
2017-01-23T01:05:10.339Z,1020.03
2017-01-23T01:06:10.277Z,1020.05
2017-01-23T01:07:10.215Z,1020.04
2017-01-23T01:08:10.153Z,1020.06
2017-01-23T01:09:10.091Z,1020.05
2017-01-23T01:10:10.030Z,1020.07
2017-01-23T01:11:09.970Z,1020.06
2017-01-23T01:12:09.905Z,1020.07
2017-01-23T01:13:09.843Z,1020.04
2017-01-23T01:14:09.783Z,1020.11
2017-01-23T01:15:09.723Z,1020.09
2017-01-23T01:16:09.657Z,1020.12
2017-01-23T01:17:09.597Z,1020.13
2017-01-23T01:18:09.534Z,1020.13
2017-01-23T01:19:09.473Z,1020.14
2017-01-23T01:20:09.425Z,1020.16
2017-01-23T01:21:09.350Z,1020.15
2017-01-23T01:22:09.287Z,1020.11
2017-01-23T01:23:09.226Z,1020.14
2017-01-23T01:24:09.165Z,1020.13
2017-01-23T01:25:09.103Z,1020.14
2017-01-23T01:26:09.039Z,1020.18
2017-01-23T01:27:08.983Z,1020.16
2017-01-23T01:28:08.916Z,1020.1
2017-01-23T01:29:08.854Z,1020.14
2017-01-23T01:30:08.794Z,1020.12
2017-01-23T01:31:08.731Z,1020.1
2017-01-23T01:32:08.672Z,1020.15
2017-01-23T01:33:08.607Z,1020.13
2017-01-23T01:34:08.548Z,1020.15
2017-01-23T01:35:08.484Z,1020.13
2017-01-23T01:36:08.422Z,1020.16
2017-01-23T01:37:08.360Z,1020.17
2017-01-23T01:38:08.299Z,1020.14
2017-01-23T01:39:08.236Z,1020.13
2017-01-23T01:40:08.175Z,1020.14
2017-01-23T01:41:08.113Z,1020.13
2017-01-23T01:42:08.056Z,1020.13
2017-01-23T01:43:07.990Z,1020.12
2017-01-23T01:44:07.928Z,1020.14
2017-01-23T01:45:07.873Z,1020.12
2017-01-23T01:46:07.804Z,1020.1
2017-01-23T01:47:07.743Z,1020.05
2017-01-23T01:48:07.680Z,1020.04
2017-01-23T01:49:07.618Z,1020.05
2017-01-23T01:50:07.557Z,1020.04
2017-01-23T01:51:07.497Z,1020.05
2017-01-23T01:52:07.451Z,1020.06
2017-01-23T01:53:07.370Z,1020.04
2017-01-23T01:54:07.317Z,1020.05
2017-01-23T01:55:07.246Z,1020.05
2017-01-23T01:56:07.184Z,1020.09
2017-01-23T01:57:07.123Z,1020.13
2017-01-23T01:58:07.062Z,1020.16
2017-01-23T01:59:06.998Z,1020.11
2017-01-23T02:00:06.937Z,1020.1
2017-01-23T02:01:06.876Z,1020.1
2017-01-23T02:02:06.814Z,1020.11
2017-01-23T02:03:06.756Z,1020.07
2017-01-23T02:04:06.692Z,1020.09
2017-01-23T02:05:06.628Z,1020.07
2017-01-23T02:06:06.565Z,1020.07
2017-01-23T02:07:06.507Z,1020.05
2017-01-23T02:08:06.442Z,1020.04
2017-01-23T02:09:06.380Z,1020.04
2017-01-23T02:10:06.317Z,1020.07
2017-01-23T02:11:06.256Z,1020.05
2017-01-23T02:12:06.196Z,1020.06
2017-01-23T02:13:06.132Z,1020.06
2017-01-23T02:14:06.069Z,1020.01
2017-01-23T02:15:06.009Z,1020.03
2017-01-23T02:16:05.946Z,1020.02
2017-01-23T02:17:05.884Z,1020.02
2017-01-23T02:18:05.822Z,1020.01
2017-01-23T02:19:05.760Z,1019.98
2017-01-23T02:20:05.698Z,1019.99
2017-01-23T02:21:05.636Z,1019.99
2017-01-23T02:22:05.574Z,1019.96
2017-01-23T02:23:05.512Z,1019.92
2017-01-23T02:24:05.453Z,1019.92
2017-01-23T02:25:05.389Z,1019.93
2017-01-23T02:26:05.353Z,1019.94
2017-01-23T02:27:05.264Z,1019.95
2017-01-23T02:28:05.202Z,1019.89
2017-01-23T02:29:05.140Z,1019.89
2017-01-23T02:30:05.079Z,1019.89
2017-01-23T02:31:05.016Z,1019.89
2017-01-23T02:32:04.955Z,1019.9
2017-01-23T02:33:04.892Z,1019.86
2017-01-23T02:34:04.832Z,1019.88
2017-01-23T02:35:04.769Z,1019.87
2017-01-23T02:36:04.709Z,1019.86
2017-01-23T02:37:04.647Z,1019.83
2017-01-23T02:38:04.587Z,1019.82
2017-01-23T02:39:04.522Z,1019.79
2017-01-23T02:40:04.470Z,1019.79
2017-01-23T02:41:04.400Z,1019.77
2017-01-23T02:42:04.336Z,1019.76
2017-01-23T02:43:04.274Z,1019.75
2017-01-23T02:44:04.211Z,1019.73
2017-01-23T02:45:04.150Z,1019.76
2017-01-23T02:46:04.096Z,1019.76
2017-01-23T02:47:04.025Z,1019.79
2017-01-23T02:48:03.964Z,1019.77
2017-01-23T02:49:03.902Z,1019.76
2017-01-23T02:50:03.839Z,1019.74
2017-01-23T02:51:03.778Z,1019.73
2017-01-23T02:52:03.716Z,1019.73
2017-01-23T02:53:03.654Z,1019.72
2017-01-23T02:54:03.592Z,1019.74
2017-01-23T02:55:03.531Z,1019.74
2017-01-23T02:56:03.470Z,1019.75
2017-01-23T02:57:03.408Z,1019.75
2017-01-23T02:58:03.345Z,1019.77
2017-01-23T02:59:03.283Z,1019.76
2017-01-23T03:00:03.224Z,1019.75
2017-01-23T03:01:03.159Z,1019.79
2017-01-23T03:02:03.097Z,1019.77
2017-01-23T03:03:03.036Z,1019.73
2017-01-23T03:04:02.973Z,1019.71
2017-01-23T03:05:02.912Z,1019.68
2017-01-23T03:06:02.850Z,1019.72
2017-01-23T03:07:02.788Z,1019.67
2017-01-23T03:08:02.730Z,1019.64
2017-01-23T03:09:02.664Z,1019.64
2017-01-23T03:10:02.603Z,1019.62
2017-01-23T03:11:02.541Z,1019.61
2017-01-23T03:12:02.478Z,1019.58
2017-01-23T03:13:02.417Z,1019.63
2017-01-23T03:14:02.355Z,1019.63
2017-01-23T03:15:02.294Z,1019.63
2017-01-23T03:16:02.232Z,1019.63
2017-01-23T03:17:02.170Z,1019.63
2017-01-23T03:18:02.138Z,1019.64
2017-01-23T03:19:02.046Z,1019.64
2017-01-23T03:20:01.985Z,1019.66
2017-01-23T03:21:01.923Z,1019.66
2017-01-23T03:22:01.861Z,1019.72
2017-01-23T03:23:01.801Z,1019.7
2017-01-23T03:24:01.739Z,1019.68
2017-01-23T03:25:01.676Z,1019.66
2017-01-23T03:26:01.616Z,1019.62
2017-01-23T03:27:01.553Z,1019.64
2017-01-23T03:28:01.491Z,1019.62
2017-01-23T03:29:01.430Z,1019.67
2017-01-23T03:30:01.367Z,1019.66
2017-01-23T03:31:01.309Z,1019.67
2017-01-23T03:32:01.245Z,1019.67
2017-01-23T03:33:01.184Z,1019.64
2017-01-23T03:34:01.121Z,1019.63
2017-01-23T03:35:01.083Z,1019.63
2017-01-23T03:36:01.000Z,1019.61
2017-01-23T03:37:00.937Z,1019.6
2017-01-23T03:38:00.876Z,1019.58
2017-01-23T03:39:00.814Z,1019.59
2017-01-23T03:40:00.757Z,1019.54
2017-01-23T03:41:00.690Z,1019.52
2017-01-23T03:42:00.630Z,1019.49
2017-01-23T03:43:00.570Z,1019.49
2017-01-23T03:44:00.506Z,1019.49
2017-01-23T03:45:00.445Z,1019.5
2017-01-23T03:46:00.382Z,1019.51
2017-01-23T03:47:00.324Z,1019.5
2017-01-23T03:48:00.260Z,1019.52
2017-01-23T03:49:00.198Z,1019.46
2017-01-23T03:50:00.137Z,1019.45
2017-01-23T03:51:00.078Z,1019.46
2017-01-23T03:52:00.016Z,1019.44
2017-01-23T03:52:59.951Z,1019.43
2017-01-23T03:53:59.895Z,1019.43
2017-01-23T03:54:59.830Z,1019.42
2017-01-23T03:55:59.768Z,1019.38
2017-01-23T03:56:59.706Z,1019.38
2017-01-23T03:57:59.644Z,1019.34
2017-01-23T03:58:59.583Z,1019.35
2017-01-23T03:59:59.521Z,1019.35
2017-01-23T04:00:59.460Z,1019.4
2017-01-23T04:01:59.398Z,1019.89
2017-01-23T04:02:59.339Z,1019.87
2017-01-23T04:03:59.275Z,1019.55
2017-01-23T04:04:59.214Z,1019.55
2017-01-23T04:05:59.158Z,1019.54
2017-01-23T04:06:59.091Z,1019.53
2017-01-23T04:07:59.029Z,1019.52
2017-01-23T04:08:58.967Z,1019.45
2017-01-23T04:09:58.906Z,1019.44
2017-01-23T04:10:58.845Z,1019.45
2017-01-23T04:11:58.784Z,1019.4
2017-01-23T04:12:58.723Z,1019.45
2017-01-23T04:13:58.661Z,1019.48
2017-01-23T04:14:58.614Z,1019.46
2017-01-23T04:15:58.539Z,1019.46
2017-01-23T04:16:58.476Z,1019.45
2017-01-23T04:17:58.415Z,1019.45
2017-01-23T04:18:58.352Z,1019.42
2017-01-23T04:19:58.291Z,1019.44
2017-01-23T04:20:58.229Z,1019.43
2017-01-23T04:21:58.168Z,1019.46
2017-01-23T04:22:58.107Z,1019.46
2017-01-23T04:23:58.046Z,1019.49
2017-01-23T04:24:57.982Z,1019.51
2017-01-23T04:25:57.921Z,1019.51
2017-01-23T04:26:57.863Z,1019.52
2017-01-23T04:27:57.800Z,1019.51
2017-01-23T04:28:57.737Z,1019.49
2017-01-23T04:29:57.675Z,1019.5
2017-01-23T04:30:57.614Z,1019.54
2017-01-23T04:31:57.552Z,1019.51
2017-01-23T04:32:57.491Z,1019.53
2017-01-23T04:33:57.428Z,1019.56
2017-01-23T04:34:57.368Z,1019.51
2017-01-23T04:35:57.306Z,1019.51
2017-01-23T04:36:57.244Z,1019.51
2017-01-23T04:37:57.183Z,1019.48
2017-01-23T04:38:57.123Z,1019.51
2017-01-23T04:39:57.058Z,1019.48
2017-01-23T04:40:56.998Z,1019.52
2017-01-23T04:41:56.936Z,1019.51
2017-01-23T04:42:56.873Z,1019.53
2017-01-23T04:43:56.816Z,1019.53
2017-01-23T04:44:56.751Z,1019.5
2017-01-23T04:45:56.689Z,1019.54
2017-01-23T04:46:56.628Z,1019.6
2017-01-23T04:47:56.566Z,1019.59
2017-01-23T04:48:56.504Z,1019.6
2017-01-23T04:49:56.445Z,1019.58
2017-01-23T04:50:56.380Z,1019.58
2017-01-23T04:51:56.321Z,1019.58
2017-01-23T04:52:56.258Z,1019.53
2017-01-23T04:53:56.195Z,1019.52
2017-01-23T04:54:56.134Z,1019.52
2017-01-23T04:55:56.072Z,1019.51
2017-01-23T04:56:56.011Z,1019.47
2017-01-23T04:57:55.948Z,1019.5
2017-01-23T04:58:55.886Z,1019.5
2017-01-23T04:59:55.851Z,1019.56
2017-01-23T05:00:55.763Z,1019.52
2017-01-23T05:01:55.702Z,1019.58
2017-01-23T05:02:55.640Z,1019.56
2017-01-23T05:03:55.577Z,1019.59
2017-01-23T05:04:55.515Z,1019.53
2017-01-23T05:05:55.453Z,1019.54
2017-01-23T05:06:55.393Z,1019.53
2017-01-23T05:07:55.331Z,1019.54
2017-01-23T05:08:55.269Z,1019.51
2017-01-23T05:09:55.207Z,1019.53
2017-01-23T05:10:55.146Z,1019.5
2017-01-23T05:11:55.083Z,1019.53
2017-01-23T05:12:55.021Z,1019.48
2017-01-23T05:13:54.960Z,1019.48
2017-01-23T05:14:54.900Z,1019.49
2017-01-23T05:15:54.836Z,1019.48
2017-01-23T05:16:54.774Z,1019.46
2017-01-23T05:17:54.712Z,1019.42
2017-01-23T05:18:54.651Z,1019.46
2017-01-23T05:19:54.588Z,1019.44
2017-01-23T05:20:54.527Z,1019.45
2017-01-23T05:21:54.465Z,1019.45
2017-01-23T05:22:54.404Z,1019.47
2017-01-23T05:23:54.341Z,1019.5
2017-01-23T05:24:54.284Z,1019.48
2017-01-23T05:25:54.218Z,1019.53
2017-01-23T05:26:54.155Z,1019.51
2017-01-23T05:27:54.093Z,1019.51
2017-01-23T05:28:54.036Z,1019.54
2017-01-23T05:29:53.971Z,1019.54
2017-01-23T05:30:53.908Z,1019.56
2017-01-23T05:31:53.848Z,1019.59
2017-01-23T05:32:53.784Z,1019.62
2017-01-23T05:33:53.724Z,1019.63
2017-01-23T05:34:53.664Z,1019.62
2017-01-23T05:35:53.599Z,1019.65
2017-01-23T05:36:53.537Z,1019.67
2017-01-23T05:37:53.474Z,1019.66
2017-01-23T05:38:53.413Z,1019.66
2017-01-23T05:39:53.351Z,1019.65
2017-01-23T05:40:53.289Z,1019.7
2017-01-23T05:41:53.227Z,1019.66
2017-01-23T05:42:53.165Z,1019.68
2017-01-23T05:43:53.104Z,1019.66
2017-01-23T05:44:53.042Z,1019.65
2017-01-23T05:45:52.979Z,1019.64
2017-01-23T05:46:52.918Z,1019.65
2017-01-23T05:47:52.856Z,1019.66
2017-01-23T05:48:52.794Z,1019.68
2017-01-23T05:49:52.736Z,1019.67
2017-01-23T05:50:52.671Z,1019.66
2017-01-23T05:51:52.608Z,1019.7
2017-01-23T05:52:52.546Z,1019.67
2017-01-23T05:53:52.483Z,1019.65
2017-01-23T05:54:52.424Z,1019.63
2017-01-23T05:55:52.363Z,1019.66
2017-01-23T05:56:52.298Z,1019.58
2017-01-23T05:57:52.236Z,1019.59
2017-01-23T05:58:52.174Z,1019.62
2017-01-23T05:59:52.111Z,1019.63
2017-01-23T06:00:52.049Z,1019.64
2017-01-23T06:01:51.988Z,1019.61
2017-01-23T06:02:51.926Z,1019.6
2017-01-23T06:03:51.863Z,1019.56
2017-01-23T06:04:51.801Z,1019.56
2017-01-23T06:05:51.741Z,1019.52
2017-01-23T06:06:51.678Z,1019.56
2017-01-23T06:07:51.615Z,1019.52
2017-01-23T06:08:51.553Z,1019.55
2017-01-23T06:09:51.492Z,1019.43
2017-01-23T06:10:51.429Z,1019.48
2017-01-23T06:11:51.368Z,1019.5
2017-01-23T06:12:51.305Z,1019.47
2017-01-23T06:13:51.243Z,1019.51
2017-01-23T06:14:51.180Z,1019.48
2017-01-23T06:15:51.121Z,1019.47
2017-01-23T06:16:51.057Z,1019.51
2017-01-23T06:17:50.995Z,1019.52
2017-01-23T06:18:50.932Z,1019.54
2017-01-23T06:19:50.872Z,1019.54
2017-01-23T06:20:50.809Z,1019.54
2017-01-23T06:21:50.747Z,1019.53
2017-01-23T06:22:50.684Z,1019.53
2017-01-23T06:23:50.622Z,1019.54
2017-01-23T06:24:50.561Z,1019.54
2017-01-23T06:25:50.498Z,1019.54
2017-01-23T06:26:50.436Z,1019.53
2017-01-23T06:27:50.374Z,1019.52
2017-01-23T06:28:50.311Z,1019.53
2017-01-23T06:29:50.250Z,1019.54
2017-01-23T06:30:50.189Z,1019.54
2017-01-23T06:31:50.127Z,1019.58
2017-01-23T06:32:50.064Z,1019.62
2017-01-23T06:33:50.002Z,1019.64
2017-01-23T06:34:49.941Z,1019.65
2017-01-23T06:35:49.879Z,1019.62
2017-01-23T06:36:49.816Z,1019.62
2017-01-23T06:37:49.755Z,1019.61
2017-01-23T06:38:49.693Z,1019.64
2017-01-23T06:39:49.631Z,1019.63
2017-01-23T06:40:49.570Z,1019.68
2017-01-23T06:41:49.509Z,1019.69
2017-01-23T06:42:49.447Z,1019.66
2017-01-23T06:43:49.384Z,1019.65
2017-01-23T06:44:49.322Z,1019.69
2017-01-23T06:45:49.261Z,1019.68
2017-01-23T06:46:49.200Z,1019.69
2017-01-23T06:47:49.137Z,1019.65
2017-01-23T06:48:49.075Z,1019.69
2017-01-23T06:49:49.014Z,1019.67
2017-01-23T06:50:48.952Z,1019.67
2017-01-23T06:51:48.890Z,1019.69
2017-01-23T06:52:48.829Z,1019.69
2017-01-23T06:53:48.768Z,1019.75
2017-01-23T06:54:48.704Z,1019.68
2017-01-23T06:55:48.645Z,1019.7
2017-01-23T06:56:48.583Z,1019.67
2017-01-23T06:57:48.525Z,1019.66
2017-01-23T06:58:48.460Z,1019.65
2017-01-23T06:59:48.396Z,1019.64
2017-01-23T07:00:48.336Z,1019.68
2017-01-23T07:01:48.274Z,1019.64
2017-01-23T07:02:48.211Z,1019.67
2017-01-23T07:03:48.150Z,1019.68
2017-01-23T07:04:48.089Z,1019.66
2017-01-23T07:05:48.027Z,1019.71
2017-01-23T07:06:47.965Z,1019.7
2017-01-23T07:07:47.903Z,1019.66
2017-01-23T07:08:47.843Z,1019.68
2017-01-23T07:09:47.781Z,1019.67
2017-01-23T07:10:47.719Z,1019.7
2017-01-23T07:11:47.658Z,1019.68
2017-01-23T07:12:47.596Z,1019.64
2017-01-23T07:13:47.535Z,1019.67
2017-01-23T07:14:47.473Z,1019.66
2017-01-23T07:15:47.412Z,1019.7
2017-01-23T07:16:47.349Z,1019.7
2017-01-23T07:17:47.289Z,1019.69
2017-01-23T07:18:47.227Z,1019.7
2017-01-23T07:19:47.165Z,1019.69
2017-01-23T07:20:47.104Z,1019.66
2017-01-23T07:21:47.043Z,1019.71
2017-01-23T07:22:46.981Z,1019.71
2017-01-23T07:23:46.918Z,1019.74
2017-01-23T07:24:46.858Z,1019.72
2017-01-23T07:25:46.796Z,1019.69
2017-01-23T07:26:46.734Z,1019.73
2017-01-23T07:27:46.672Z,1019.69
2017-01-23T07:28:46.611Z,1019.71
2017-01-23T07:29:46.550Z,1019.7
2017-01-23T07:30:46.489Z,1019.71
2017-01-23T07:31:46.426Z,1019.74
2017-01-23T07:32:46.365Z,1019.69
2017-01-23T07:33:46.302Z,1019.68
2017-01-23T07:34:46.241Z,1019.72
2017-01-23T07:35:46.182Z,1019.71
2017-01-23T07:36:46.118Z,1019.74
2017-01-23T07:37:46.058Z,1019.75
2017-01-23T07:38:45.994Z,1019.81
2017-01-23T07:39:45.933Z,1019.73
2017-01-23T07:40:45.872Z,1019.67
2017-01-23T07:41:45.958Z,1019.7
2017-01-23T07:42:45.748Z,1019.7
2017-01-23T07:43:45.685Z,1019.71
2017-01-23T07:44:45.625Z,1019.72
2017-01-23T07:45:45.562Z,1019.72
2017-01-23T07:46:45.535Z,1019.72
2017-01-23T07:47:45.439Z,1019.7
2017-01-23T07:48:45.378Z,1019.7
2017-01-23T07:49:45.315Z,1019.7
2017-01-23T07:50:45.253Z,1019.74
2017-01-23T07:51:45.192Z,1019.71
2017-01-23T07:52:45.130Z,1019.72
2017-01-23T07:53:45.069Z,1019.74
2017-01-23T07:54:45.008Z,1019.73
2017-01-23T07:55:44.976Z,1019.76
2017-01-23T07:56:44.883Z,1019.77
2017-01-23T07:57:44.821Z,1019.77
2017-01-23T07:58:44.761Z,1019.77
2017-01-23T07:59:44.699Z,1019.75
2017-01-23T08:00:44.636Z,1019.76
2017-01-23T08:01:44.575Z,1019.76
2017-01-23T08:02:44.514Z,1019.77
2017-01-23T08:03:44.462Z,1019.82
2017-01-23T08:04:44.389Z,1019.8
2017-01-23T08:05:44.328Z,1019.79
2017-01-23T08:06:44.266Z,1019.75
2017-01-23T08:07:44.204Z,1019.77
2017-01-23T08:08:44.141Z,1019.8
2017-01-23T08:09:44.081Z,1019.78
2017-01-23T08:10:44.170Z,1019.77
2017-01-23T08:11:43.956Z,1019.78
2017-01-23T08:12:43.895Z,1019.77
2017-01-23T08:13:43.835Z,1019.77
2017-01-23T08:14:43.770Z,1019.79
2017-01-23T08:15:43.959Z,1019.78
2017-01-23T08:16:43.647Z,1019.79
2017-01-23T08:17:43.587Z,1019.77
2017-01-23T08:18:43.566Z,1019.85
2017-01-23T08:19:43.461Z,1019.83
2017-01-23T08:20:43.401Z,1019.83
2017-01-23T08:21:43.338Z,1019.82
2017-01-23T08:22:43.274Z,1019.82
2017-01-23T08:23:43.214Z,1019.83
2017-01-23T08:24:43.151Z,1019.83
2017-01-23T08:25:43.089Z,1019.83
2017-01-23T08:26:43.027Z,1019.86
2017-01-23T08:27:42.965Z,1019.84
2017-01-23T08:28:42.906Z,1019.84
2017-01-23T08:29:42.840Z,1019.82
2017-01-23T08:30:42.804Z,1019.86
2017-01-23T08:31:42.717Z,1019.89
2017-01-23T08:32:42.655Z,1019.91
2017-01-23T08:33:42.594Z,1019.91
2017-01-23T08:34:42.530Z,1019.9
2017-01-23T08:35:42.469Z,1019.93
2017-01-23T08:36:42.406Z,1019.88
2017-01-23T08:37:42.346Z,1019.99
2017-01-23T08:38:42.283Z,1019.98
2017-01-23T08:39:42.222Z,1020.02
2017-01-23T08:40:42.158Z,1020.02
2017-01-23T08:41:42.096Z,1020.01
2017-01-23T08:42:42.034Z,1020.03
2017-01-23T08:43:41.971Z,1020.05
2017-01-23T08:44:41.908Z,1020.03
2017-01-23T08:45:41.848Z,1020.07
2017-01-23T08:46:41.787Z,1020.07
2017-01-23T08:47:41.722Z,1020.05
2017-01-23T08:48:41.660Z,1020.07
2017-01-23T08:49:41.602Z,1020.1
2017-01-23T08:50:41.536Z,1020.12
2017-01-23T08:51:41.473Z,1020.11
2017-01-23T08:52:41.411Z,1020.19
2017-01-23T08:53:41.349Z,1020.13
2017-01-23T08:54:41.286Z,1020.21
2017-01-23T08:55:41.228Z,1020.19
2017-01-23T08:56:41.163Z,1020.18
2017-01-23T08:57:41.101Z,1020.19
2017-01-23T08:58:41.039Z,1020.17
2017-01-23T08:59:40.984Z,1020.17
2017-01-23T09:00:40.921Z,1020.17
2017-01-23T09:01:40.853Z,1020.15
2017-01-23T09:02:40.791Z,1020.2
2017-01-23T09:03:40.728Z,1020.15
2017-01-23T09:04:40.667Z,1020.19
2017-01-23T09:05:40.606Z,1020.13
2017-01-23T09:06:40.544Z,1020.12
2017-01-23T09:07:40.481Z,1020.13
2017-01-23T09:08:40.422Z,1020.09
2017-01-23T09:09:40.356Z,1020.11
2017-01-23T09:10:40.295Z,1020.07
2017-01-23T09:11:40.233Z,1020.12
2017-01-23T09:12:40.171Z,1020.1
2017-01-23T09:13:40.108Z,1020.12
2017-01-23T09:14:40.047Z,1020.15
2017-01-23T09:15:39.986Z,1020.16
2017-01-23T09:16:39.923Z,1020.22
2017-01-23T09:17:39.861Z,1020.22
2017-01-23T09:18:39.799Z,1020.2
2017-01-23T09:19:39.737Z,1020.22
2017-01-23T09:20:39.674Z,1020.2
2017-01-23T09:21:39.612Z,1020.19
2017-01-23T09:22:39.551Z,1020.22
2017-01-23T09:23:39.490Z,1020.18
2017-01-23T09:24:39.426Z,1020.14
2017-01-23T09:25:39.365Z,1020.19
2017-01-23T09:26:39.303Z,1020.18
2017-01-23T09:27:39.241Z,1020.17
2017-01-23T09:28:39.179Z,1020.15
2017-01-23T09:29:39.116Z,1020.15
2017-01-23T09:30:39.054Z,1020.11
2017-01-23T09:31:38.992Z,1020.09
2017-01-23T09:32:38.930Z,1020.08
2017-01-23T09:33:38.868Z,1020.07
2017-01-23T09:34:38.832Z,1020.08
2017-01-23T09:35:38.743Z,1020.06
2017-01-23T09:36:38.691Z,1020.06
2017-01-23T09:37:38.618Z,1020.1
2017-01-23T09:38:38.555Z,1020.09
2017-01-23T09:39:38.504Z,1020.07
2017-01-23T09:40:38.463Z,1020.06
2017-01-23T09:41:38.370Z,1020.08
2017-01-23T09:42:38.307Z,1020.07
2017-01-23T09:43:38.247Z,1020.08
2017-01-23T09:44:38.184Z,1020.12
2017-01-23T09:45:38.121Z,1020.11
2017-01-23T09:46:38.058Z,1020.12
2017-01-23T09:47:37.995Z,1020.08
2017-01-23T09:48:37.934Z,1020.14
2017-01-23T09:49:37.871Z,1020.2
2017-01-23T09:50:37.808Z,1020.16
2017-01-23T09:51:37.747Z,1020.15
2017-01-23T09:52:37.684Z,1020.17
2017-01-23T09:53:37.622Z,1020.2
2017-01-23T09:54:37.560Z,1020.19
2017-01-23T09:55:37.513Z,1020.2
2017-01-23T09:56:37.434Z,1020.15
2017-01-23T09:57:37.371Z,1020.12
2017-01-23T09:58:37.310Z,1020.09
2017-01-23T09:59:37.246Z,1020.08
2017-01-23T10:00:37.183Z,1020.07
2017-01-23T10:01:37.136Z,1020.06
2017-01-23T10:02:37.062Z,1020.07
2017-01-23T10:03:36.998Z,1020.1
2017-01-23T10:04:36.934Z,1020.08
2017-01-23T10:05:36.871Z,1020.09
2017-01-23T10:06:36.810Z,1020.09
2017-01-23T10:07:36.748Z,1020.14
2017-01-23T10:08:36.683Z,1020.09
2017-01-23T10:09:36.638Z,1020.06
2017-01-23T10:10:36.560Z,1020.03
2017-01-23T10:11:36.497Z,1020.04
2017-01-23T10:12:36.434Z,1019.98
2017-01-23T10:13:36.376Z,1019.96
2017-01-23T10:14:36.310Z,1019.96
2017-01-23T10:15:36.248Z,1020.04
2017-01-23T10:16:36.235Z,1020.02
2017-01-23T10:17:36.125Z,1020
2017-01-23T10:18:36.060Z,1020.01
2017-01-23T10:19:35.998Z,1020.07
2017-01-23T10:20:35.942Z,1020.01
2017-01-23T10:21:35.876Z,1020.04
2017-01-23T10:22:35.810Z,1020.04
2017-01-23T10:23:35.747Z,1020.1
2017-01-23T10:24:35.685Z,1020.1
2017-01-23T10:25:35.623Z,1020.11
2017-01-23T10:26:35.559Z,1020.12
2017-01-23T10:27:35.498Z,1020.09
2017-01-23T10:28:35.438Z,1020.1
2017-01-23T10:29:35.372Z,1020.07
2017-01-23T10:30:35.311Z,1020.07
2017-01-23T10:31:35.249Z,1020.1
2017-01-23T10:32:35.188Z,1020.08
2017-01-23T10:33:35.124Z,1020.07
2017-01-23T10:34:35.061Z,1020.09
2017-01-23T10:35:35.352Z,1020.07
2017-01-23T10:36:34.937Z,1020.06
2017-01-23T10:37:34.874Z,1020.1
2017-01-23T10:38:34.816Z,1020.09
2017-01-23T10:39:34.749Z,1020.11
2017-01-23T10:40:34.691Z,1020.13
2017-01-23T10:41:34.648Z,1020.1
2017-01-23T10:42:34.562Z,1020.09
2017-01-23T10:43:34.500Z,1020.15
2017-01-23T10:44:34.436Z,1020.13
2017-01-23T10:45:34.674Z,1020.06
2017-01-23T10:46:34.312Z,1020.05
2017-01-23T10:47:34.254Z,1020.08
2017-01-23T10:48:34.187Z,1020.06
2017-01-23T10:49:34.125Z,1020.07
2017-01-23T10:50:34.213Z,1020.04
2017-01-23T10:51:34.000Z,1020.01
2017-01-23T10:52:33.938Z,1020.04
2017-01-23T10:53:33.875Z,1020.03
2017-01-23T10:54:33.813Z,1020.01
2017-01-23T10:55:33.750Z,1020.03
2017-01-23T10:56:33.688Z,1020.03
2017-01-23T10:57:33.630Z,1020.01
2017-01-23T10:58:33.563Z,1019.99
2017-01-23T10:59:33.501Z,1019.99
2017-01-23T11:00:33.693Z,1019.99
2017-01-23T11:01:33.376Z,1020
2017-01-23T11:02:33.313Z,1020.02
2017-01-23T11:03:33.251Z,1020
2017-01-23T11:04:33.188Z,1019.99
2017-01-23T11:05:33.128Z,1019.96
2017-01-23T11:06:33.087Z,1019.95
2017-01-23T11:07:33.003Z,1019.98
2017-01-23T11:08:32.947Z,1019.96
2017-01-23T11:09:32.880Z,1019.94
2017-01-23T11:10:32.817Z,1019.91
2017-01-23T11:11:32.753Z,1019.92
2017-01-23T11:12:32.691Z,1019.92
2017-01-23T11:13:32.627Z,1019.93
2017-01-23T11:14:32.566Z,1019.91
2017-01-23T11:15:32.502Z,1019.87
2017-01-23T11:16:32.441Z,1019.93
2017-01-23T11:17:32.376Z,1019.91
2017-01-23T11:18:32.314Z,1019.86
2017-01-23T11:19:32.260Z,1019.86
2017-01-23T11:20:32.189Z,1019.85
2017-01-23T11:21:32.127Z,1019.86
2017-01-23T11:22:32.064Z,1019.88
2017-01-23T11:23:32.002Z,1019.86
2017-01-23T11:24:31.940Z,1019.89
2017-01-23T11:25:31.876Z,1019.86
2017-01-23T11:26:31.829Z,1019.84
2017-01-23T11:27:31.751Z,1019.81
2017-01-23T11:28:31.688Z,1019.85
2017-01-23T11:29:31.632Z,1019.79
2017-01-23T11:30:31.563Z,1019.83
2017-01-23T11:31:31.501Z,1019.86
2017-01-23T11:32:31.437Z,1019.81
2017-01-23T11:33:31.377Z,1019.82
2017-01-23T11:34:31.313Z,1019.83
2017-01-23T11:35:31.250Z,1019.86
2017-01-23T11:36:31.187Z,1019.84
2017-01-23T11:37:31.125Z,1019.83
2017-01-23T11:38:31.065Z,1019.84
2017-01-23T11:39:30.999Z,1019.84
2017-01-23T11:40:30.938Z,1019.79
2017-01-23T11:41:30.882Z,1019.83
2017-01-23T11:42:30.813Z,1019.78
2017-01-23T11:43:30.749Z,1019.79
2017-01-23T11:44:30.688Z,1019.8
2017-01-23T11:45:30.625Z,1019.83
2017-01-23T11:46:30.562Z,1019.81
2017-01-23T11:47:30.499Z,1019.81
2017-01-23T11:48:30.439Z,1019.81
2017-01-23T11:49:30.374Z,1019.77
2017-01-23T11:50:30.312Z,1019.78
2017-01-23T11:51:30.258Z,1019.78
2017-01-23T11:52:30.186Z,1019.75
2017-01-23T11:53:30.124Z,1019.78
2017-01-23T11:54:30.060Z,1019.75
2017-01-23T11:55:29.998Z,1019.8
2017-01-23T11:56:29.936Z,1019.77
2017-01-23T11:57:29.873Z,1019.79
2017-01-23T11:58:29.839Z,1019.8
2017-01-23T11:59:29.748Z,1019.78
2017-01-23T12:00:29.686Z,1019.74
2017-01-23T12:01:29.621Z,1019.8
2017-01-23T12:02:29.560Z,1019.78
2017-01-23T12:03:29.498Z,1019.79
2017-01-23T12:04:29.438Z,1019.77
2017-01-23T12:05:29.373Z,1019.76
2017-01-23T12:06:29.310Z,1019.74
2017-01-23T12:07:29.254Z,1019.75